Gaz Palmyra — 3FCO4 — position and weather

sailwx.info

Track history (hours):
 
Tides and Currents Weather Stations Pressure Air Temp Water Temp Dewpoint Dewpoint Depression Visibility Wind Speed Wind Dir Waves Ship Positions

Gaz Palmyra

Last reported at 2018-Jun-18 17:30 UTC. Time now 2018-Jun-18 17:38 UTC.
Position N 36°48' E 001°38'.

Length 137 m; draft 5.5 m.

Type: Ship (hazmat cat C). MMSI: 353247000.

Date/timePositionNaut miles runAvg speedWind from/ knotsBaromVisibWave heightAir tempDewpointWater temp
2018-Jun-18 17:30N 36°48' E 001°38'510.0
2018-Jun-18 17:00N 36°49' E 001°44'5 9.9
2018-Jun-18 16:30N 36°50' E 001°50'510.1
2018-Jun-18 16:00N 36°51' E 001°56'510.3
2018-Jun-18 15:30N 36°51' E 002°02'510.2
2018-Jun-18 15:00N 36°52' E 002°09'510.3
2018-Jun-18 14:30N 36°53' E 002°15'510.5
2018-Jun-18 14:00N 36°54' E 002°22'510.5
2018-Jun-18 13:30N 36°54' E 002°28'  
2018-Jun-12 02:51N 36°46' E 003°06'0 0.0
2018-Jun-12 02:29N 36°46' E 003°06'0 0.0
2018-Jun-12 02:00N 36°46' E 003°06'0 0.1
2018-Jun-12 01:30N 36°46' E 003°06'0 0.2
2018-Jun-12 01:00N 36°46' E 003°06'0 0.1
2018-Jun-12 00:24N 36°46' E 003°06'0 0.1
2018-Jun-12 00:00N 36°46' E 003°06'0 0.1
2018-Jun-11 23:30N 36°46' E 003°06'0 0.0
2018-Jun-11 22:59N 36°46' E 003°06'0 0.0
2018-Jun-11 22:23N 36°46' E 003°06'0 0.1
2018-Jun-11 21:52N 36°46' E 003°06'0 0.0
2018-Jun-11 21:30N 36°46' E 003°06'0 0.0
2018-Jun-11 21:00N 36°46' E 003°06'0 0.1
2018-Jun-11 20:30N 36°46' E 003°06'0 0.0
2018-Jun-11 19:44N 36°46' E 003°06'  
2018-Jun-08 23:02N 36°02' W 000°08'0 2.0
2018-Jun-08 23:00N 36°02' W 000°08'1 1.9
2018-Jun-08 22:30N 36°02' W 000°09'2 0.4
2018-Jun-08 18:30N 36°02' W 000°07'1 0.9
2018-Jun-08 17:52N 36°02' W 000°08'  
Track history (hours):
 
Tides and Currents Weather Stations Pressure Air Temp Water Temp Dewpoint Dewpoint Depression Visibility Wind Speed Wind Dir Waves Ship Positions

Gaz Palmyra

Last reported at 2018-Jun-18 17:30 UTC. Time now 2018-Jun-18 17:38 UTC.
Position N 36°48' E 001°38'.

Length 137 m; draft 5.5 m.

Type: Ship (hazmat cat C). MMSI: 353247000.

Date/timePositionNaut miles runAvg speedWind from/ knotsBaromVisibWave heightAir tempDewpointWater temp
2018-Jun-18 17:30N 36°48' E 001°38'510.0
2018-Jun-18 17:00N 36°49' E 001°44'5 9.9
2018-Jun-18 16:30N 36°50' E 001°50'510.1
2018-Jun-18 16:00N 36°51' E 001°56'510.3
2018-Jun-18 15:30N 36°51' E 002°02'510.2
2018-Jun-18 15:00N 36°52' E 002°09'510.3
2018-Jun-18 14:30N 36°53' E 002°15'510.5
2018-Jun-18 14:00N 36°54' E 002°22'510.5
2018-Jun-18 13:30N 36°54' E 002°28'  
2018-Jun-12 02:51N 36°46' E 003°06'0 0.0
2018-Jun-12 02:29N 36°46' E 003°06'0 0.0
2018-Jun-12 02:00N 36°46' E 003°06'0 0.1
2018-Jun-12 01:30N 36°46' E 003°06'0 0.2
2018-Jun-12 01:00N 36°46' E 003°06'0 0.1
2018-Jun-12 00:24N 36°46' E 003°06'0 0.1
2018-Jun-12 00:00N 36°46' E 003°06'0 0.1
2018-Jun-11 23:30N 36°46' E 003°06'0 0.0
2018-Jun-11 22:59N 36°46' E 003°06'0 0.0
2018-Jun-11 22:23N 36°46' E 003°06'0 0.1
2018-Jun-11 21:52N 36°46' E 003°06'0 0.0
2018-Jun-11 21:30N 36°46' E 003°06'0 0.0
2018-Jun-11 21:00N 36°46' E 003°06'0 0.1
2018-Jun-11 20:30N 36°46' E 003°06'0 0.0
2018-Jun-11 19:44N 36°46' E 003°06'  
2018-Jun-08 23:02N 36°02' W 000°08'0 2.0
2018-Jun-08 23:00N 36°02' W 000°08'1 1.9
2018-Jun-08 22:30N 36°02' W 000°09'2 0.4
2018-Jun-08 18:30N 36°02' W 000°07'1 0.9
2018-Jun-08 17:52N 36°02' W 000°08'  

Dump ship's entire track history